createdAt,value
2023-05-20T00:02:02.598Z,50.17
2023-05-20T00:06:02.780Z,50.58
2023-05-20T00:10:03.008Z,50.43
2023-05-20T00:14:05.768Z,50.17
2023-05-20T00:18:06.967Z,49.72
2023-05-20T00:22:07.344Z,49.80
2023-05-20T00:26:07.980Z,50.13
2023-05-20T00:30:13.024Z,49.98
2023-05-20T00:34:13.212Z,49.90
2023-05-20T00:38:13.378Z,50.47
2023-05-20T00:42:13.610Z,50.21
2023-05-20T00:46:17.346Z,49.78
2023-05-20T00:50:17.736Z,49.97
2023-05-20T00:54:18.118Z,49.77
2023-05-20T00:58:18.546Z,50.27
2023-05-20T01:02:22.369Z,50.46
2023-05-20T01:06:23.885Z,51.11
2023-05-20T01:10:29.376Z,51.13
2023-05-20T01:14:35.774Z,51.94
2023-05-20T01:18:42.183Z,52.23
2023-05-20T01:22:51.117Z,52.07
2023-05-20T01:26:51.401Z,51.97
2023-05-20T01:31:00.220Z,52.04
2023-05-20T01:35:02.361Z,52.19
2023-05-20T01:39:06.911Z,52.46
2023-05-20T01:43:08.184Z,53.30
2023-05-20T01:47:09.170Z,53.08
2023-05-20T01:51:09.477Z,53.82
2023-05-20T01:55:13.360Z,54.31
2023-05-20T01:59:13.577Z,55.29
2023-05-20T02:03:14.030Z,54.69
2023-05-20T02:07:14.738Z,54.89
2023-05-20T02:11:17.521Z,55.03
2023-05-20T02:15:18.025Z,55.41
2023-05-20T02:19:23.844Z,55.68
2023-05-20T02:23:24.362Z,55.58
2023-05-20T02:27:27.134Z,56.84
2023-05-20T02:31:27.464Z,56.63
2023-05-20T02:35:28.529Z,57.01
2023-05-20T02:39:28.788Z,56.72
2023-05-20T02:43:31.706Z,57.11
2023-05-20T02:47:34.388Z,56.59
2023-05-20T02:51:34.983Z,57.20
2023-05-20T02:55:38.643Z,56.80
2023-05-20T02:59:43.113Z,57.10
2023-05-20T03:03:43.686Z,55.97
2023-05-20T03:07:44.030Z,56.50
2023-05-20T03:11:44.569Z,56.22
2023-05-20T03:15:48.263Z,56.07
2023-05-20T03:19:48.524Z,56.94
2023-05-20T03:23:48.879Z,56.54
2023-05-20T03:27:49.212Z,57.12
2023-05-20T03:31:52.436Z,57.16
2023-05-20T03:35:52.735Z,57.22
2023-05-20T03:39:53.039Z,58.27
2023-05-20T03:43:53.689Z,57.90
2023-05-20T03:47:57.045Z,57.90
2023-05-20T03:51:57.489Z,58.16
2023-05-20T03:55:57.691Z,57.92
2023-05-20T03:59:58.929Z,57.08
2023-05-20T04:04:02.418Z,57.14
2023-05-20T04:08:04.532Z,56.60
2023-05-20T04:12:04.816Z,56.71
2023-05-20T04:16:05.893Z,56.44
2023-05-20T04:20:11.560Z,56.60
2023-05-20T04:24:11.794Z,56.54
2023-05-20T04:28:16.674Z,56.52
2023-05-20T04:32:18.900Z,57.35
2023-05-20T04:36:22.375Z,56.82
2023-05-20T04:40:23.168Z,56.06
2023-05-20T04:44:24.916Z,55.86
2023-05-20T04:48:25.585Z,56.07
2023-05-20T04:52:28.887Z,56.55
2023-05-20T04:56:29.165Z,57.33
2023-05-20T05:00:29.871Z,57.91
2023-05-20T05:04:30.164Z,56.66
2023-05-20T05:08:33.111Z,56.38
2023-05-20T05:12:33.739Z,55.88
2023-05-20T05:16:34.433Z,55.57
2023-05-20T05:20:34.759Z,55.32
2023-05-20T05:24:37.621Z,53.79
2023-05-20T05:28:38.567Z,53.67
2023-05-20T05:32:40.840Z,53.21
2023-05-20T05:36:43.821Z,54.34
2023-05-20T05:40:46.736Z,52.90
2023-05-20T05:44:47.777Z,52.93
2023-05-20T05:48:51.105Z,52.61
2023-05-20T05:52:52.866Z,51.43
2023-05-20T05:56:57.806Z,50.66
2023-05-20T06:01:00.796Z,50.77
2023-05-20T06:05:01.626Z,50.15
2023-05-20T06:09:02.574Z,50.24
2023-05-20T06:13:05.519Z,50.47
2023-05-20T06:17:07.891Z,50.85
2023-05-20T06:21:08.602Z,49.91
2023-05-20T06:25:11.139Z,51.96
2023-05-20T06:29:13.976Z,52.60
2023-05-20T06:33:14.674Z,50.13
2023-05-20T06:37:15.355Z,50.92
2023-05-20T06:41:15.772Z,50.66
2023-05-20T06:45:18.825Z,50.15
2023-05-20T06:49:26.165Z,49.79
2023-05-20T06:53:26.596Z,48.52
2023-05-20T06:57:27.446Z,47.65
2023-05-20T07:01:30.553Z,47.90
2023-05-20T07:05:32.401Z,47.62
2023-05-20T07:09:33.188Z,46.52
2023-05-20T07:13:34.352Z,46.09
2023-05-20T07:17:37.764Z,46.12
2023-05-20T07:21:38.915Z,45.72
2023-05-20T07:25:51.949Z,45.31
2023-05-20T07:29:52.715Z,45.20
2023-05-20T07:33:56.778Z,45.09
2023-05-20T07:37:57.649Z,44.18
2023-05-20T07:41:57.990Z,44.48
2023-05-20T07:45:59.205Z,43.23
2023-05-20T07:50:02.226Z,43.35
2023-05-20T07:54:05.432Z,42.53
2023-05-20T07:58:06.386Z,41.64
2023-05-20T08:02:09.595Z,40.22
2023-05-20T08:06:12.788Z,36.97
2023-05-20T08:10:14.166Z,35.89
2023-05-20T08:14:15.738Z,35.82
2023-05-20T08:18:18.274Z,34.40
2023-05-20T08:22:21.281Z,34.19
2023-05-20T08:26:22.175Z,35.37
2023-05-20T08:30:24.191Z,34.51
2023-05-20T08:34:24.731Z,35.53
2023-05-20T08:38:27.972Z,33.46
2023-05-20T08:42:29.176Z,32.31
2023-05-20T08:46:30.707Z,33.08
2023-05-20T08:50:31.049Z,32.23
2023-05-20T08:54:47.590Z,30.78
2023-05-20T08:58:48.140Z,30.01
2023-05-20T09:02:49.181Z,30.77
2023-05-20T09:06:50.101Z,31.28
2023-05-20T09:10:56.226Z,31.22
2023-05-20T09:14:56.532Z,31.01
2023-05-20T09:18:59.907Z,30.47
2023-05-20T09:23:03.680Z,31.26
2023-05-20T09:27:07.274Z,30.68
2023-05-20T09:31:10.139Z,31.54
2023-05-20T09:35:11.892Z,29.35
2023-05-20T09:39:18.474Z,31.60
2023-05-20T09:43:21.904Z,31.82
2023-05-20T09:47:23.460Z,33.31
2023-05-20T09:51:27.529Z,33.95
2023-05-20T09:55:28.406Z,31.86
2023-05-20T09:59:34.495Z,32.55
2023-05-20T10:03:36.362Z,31.52
2023-05-20T10:08:14.957Z,30.38
2023-05-20T10:12:28.559Z,30.28
2023-05-20T10:16:45.289Z,29.82
2023-05-20T10:20:50.297Z,29.20
2023-05-20T10:25:01.642Z,28.54
2023-05-20T10:29:01.869Z,26.66
2023-05-20T10:33:08.892Z,25.76
2023-05-20T10:37:09.454Z,23.94
2023-05-20T10:41:14.360Z,24.82
2023-05-20T10:45:15.359Z,24.65
2023-05-20T10:49:27.164Z,25.79
2023-05-20T10:53:34.447Z,25.95
2023-05-20T10:57:35.118Z,26.02
2023-05-20T11:01:36.126Z,27.08
2023-05-20T11:05:42.212Z,27.75
2023-05-20T11:09:42.833Z,27.00
2023-05-20T11:13:44.209Z,26.74
2023-05-20T11:17:56.783Z,25.41
2023-05-20T11:21:59.629Z,25.10
2023-05-20T11:26:00.867Z,23.85
2023-05-20T11:30:01.228Z,25.26
2023-05-20T11:34:04.566Z,26.33
2023-05-20T11:38:09.761Z,25.71
2023-05-20T11:42:10.099Z,25.01
2023-05-20T11:46:10.351Z,26.68
2023-05-20T11:50:14.238Z,26.23
2023-05-20T11:54:17.039Z,26.08
2023-05-20T11:58:19.810Z,25.98
2023-05-20T12:02:20.150Z,25.20
2023-05-20T12:06:20.692Z,23.79
2023-05-20T12:10:23.905Z,24.77
2023-05-20T12:14:24.233Z,25.61
2023-05-20T12:18:25.391Z,26.72
2023-05-20T12:22:25.708Z,25.29
2023-05-20T12:26:29.732Z,27.13
2023-05-20T12:30:30.078Z,26.79
2023-05-20T12:34:30.832Z,26.19
2023-05-20T12:38:31.161Z,27.09
2023-05-20T12:42:34.001Z,27.04
2023-05-20T12:46:34.274Z,24.27
2023-05-20T12:50:34.924Z,24.25
2023-05-20T12:54:35.369Z,25.54
2023-05-20T12:58:38.174Z,26.42
2023-05-20T13:02:40.102Z,26.06
2023-05-20T13:06:40.894Z,25.02
2023-05-20T13:10:41.145Z,23.94
2023-05-20T13:14:44.229Z,23.32
2023-05-20T13:18:44.697Z,24.33
2023-05-20T13:22:44.984Z,24.81
2023-05-20T13:26:45.787Z,24.96
2023-05-20T13:30:48.878Z,24.51
2023-05-20T13:34:49.412Z,28.17
2023-05-20T13:38:49.700Z,28.31
2023-05-20T13:42:49.847Z,27.98
2023-05-20T13:46:52.957Z,29.04
2023-05-20T13:50:53.392Z,29.88
2023-05-20T13:54:54.023Z,31.52
2023-05-20T13:58:54.493Z,31.26
2023-05-20T14:02:57.362Z,30.16
2023-05-20T14:06:57.816Z,30.06
2023-05-20T14:10:58.108Z,32.55
2023-05-20T14:14:58.358Z,32.31
2023-05-20T14:19:01.348Z,33.49
2023-05-20T14:23:02.039Z,34.38
2023-05-20T14:27:02.395Z,32.89
2023-05-20T14:31:02.623Z,32.01
2023-05-20T14:35:05.586Z,31.77
2023-05-20T14:39:06.184Z,36.73
2023-05-20T14:43:06.522Z,39.88
2023-05-20T14:47:07.586Z,45.80
2023-05-20T14:51:10.573Z,48.87
2023-05-20T14:55:11.182Z,49.32
2023-05-20T14:59:11.794Z,51.39
2023-05-20T15:03:12.238Z,50.99
2023-05-20T15:07:15.313Z,50.73
2023-05-20T15:11:15.752Z,47.63
2023-05-20T15:15:16.803Z,45.14
2023-05-20T15:19:17.462Z,42.16
2023-05-20T15:23:21.015Z,40.15
2023-05-20T15:27:21.857Z,38.09
2023-05-20T15:31:22.193Z,37.43
2023-05-20T15:35:22.636Z,36.91
2023-05-20T15:39:26.879Z,35.61
2023-05-20T15:43:27.134Z,34.73
2023-05-20T15:47:27.596Z,33.50
2023-05-20T15:51:28.014Z,35.25
2023-05-20T15:55:31.618Z,33.92
2023-05-20T15:59:32.066Z,32.44
2023-05-20T16:03:32.599Z,33.07
2023-05-20T16:07:34.160Z,31.88
2023-05-20T16:11:37.083Z,32.42
2023-05-20T16:15:38.769Z,32.77
2023-05-20T16:19:39.286Z,35.97
2023-05-20T16:23:39.623Z,36.09
2023-05-20T16:27:45.318Z,35.66
2023-05-20T16:31:47.220Z,35.77
2023-05-20T16:35:47.861Z,35.44
2023-05-20T16:39:48.033Z,35.62
2023-05-20T16:43:50.956Z,36.12
2023-05-20T16:47:51.699Z,35.13
2023-05-20T16:51:52.656Z,35.08
2023-05-20T16:55:54.063Z,33.85
2023-05-20T16:59:56.921Z,31.44
2023-05-20T17:03:57.213Z,30.36
2023-05-20T17:08:00.267Z,32.02
2023-05-20T17:12:00.797Z,31.98
2023-05-20T17:16:03.763Z,31.67
2023-05-20T17:20:05.658Z,34.62
2023-05-20T17:24:06.198Z,33.56
2023-05-20T17:28:06.958Z,33.77
2023-05-20T17:32:10.825Z,34.11
2023-05-20T17:36:11.515Z,33.18
2023-05-20T17:40:16.731Z,32.56
2023-05-20T17:44:17.116Z,33.46
2023-05-20T17:48:20.163Z,33.12
2023-05-20T17:52:20.490Z,33.37
2023-05-20T17:56:21.140Z,33.87
2023-05-20T18:00:21.827Z,34.52
2023-05-20T18:04:24.809Z,34.96
2023-05-20T18:08:25.607Z,36.05
2023-05-20T18:12:25.888Z,36.64
2023-05-20T18:16:26.479Z,37.68
2023-05-20T18:20:29.519Z,37.16
2023-05-20T18:24:29.821Z,38.33
2023-05-20T18:28:30.147Z,38.13
2023-05-20T18:32:30.493Z,39.29
2023-05-20T18:36:35.453Z,40.22
2023-05-20T18:40:38.489Z,39.80
2023-05-20T18:44:39.011Z,40.25
2023-05-20T18:48:39.381Z,40.38
2023-05-20T18:52:42.480Z,40.25
2023-05-20T18:56:42.923Z,40.61
2023-05-20T19:00:44.956Z,41.27
2023-05-20T19:04:45.389Z,41.11
2023-05-20T19:08:49.554Z,41.62
2023-05-20T19:12:50.208Z,41.91
2023-05-20T19:16:51.051Z,42.12
2023-05-20T19:20:52.714Z,42.91
2023-05-20T19:24:55.848Z,43.62
2023-05-20T19:28:56.391Z,43.69
2023-05-20T19:32:56.839Z,43.94
2023-05-20T19:36:59.707Z,44.68
2023-05-20T19:41:04.703Z,45.10
2023-05-20T19:45:05.377Z,45.65
2023-05-20T19:49:08.902Z,46.29
2023-05-20T19:53:11.965Z,46.14
2023-05-20T19:57:15.052Z,45.92
2023-05-20T20:01:17.428Z,45.90
2023-05-20T20:05:18.260Z,46.95
2023-05-20T20:09:24.202Z,47.14
2023-05-20T20:13:27.028Z,48.01
2023-05-20T20:17:27.632Z,47.66
2023-05-20T20:21:28.551Z,47.79
2023-05-20T20:25:34.696Z,48.02
2023-05-20T20:29:38.380Z,48.15
2023-05-20T20:33:38.811Z,48.58
2023-05-20T20:37:39.167Z,48.10
2023-05-20T20:41:39.478Z,48.94
2023-05-20T20:45:42.962Z,48.85
2023-05-20T20:49:43.325Z,49.30
2023-05-20T20:53:46.494Z,49.06
2023-05-20T20:57:46.879Z,49.97
2023-05-20T21:01:49.810Z,49.84
2023-05-20T21:05:50.911Z,50.14
2023-05-20T21:09:55.176Z,50.14
2023-05-20T21:13:55.774Z,49.88
2023-05-20T21:17:58.858Z,50.10
2023-05-20T21:21:59.458Z,49.63
2023-05-20T21:25:59.863Z,49.87
2023-05-20T21:30:00.257Z,50.80
2023-05-20T21:34:03.417Z,51.22
2023-05-20T21:38:04.069Z,51.15
2023-05-20T21:42:04.991Z,51.12
2023-05-20T21:46:06.312Z,51.69
2023-05-20T21:50:11.226Z,52.22
2023-05-20T21:54:11.572Z,52.67
2023-05-20T21:58:11.840Z,52.11
2023-05-20T22:02:12.224Z,51.54
2023-05-20T22:06:16.079Z,52.74
2023-05-20T22:10:17.752Z,52.55
2023-05-20T22:14:18.882Z,52.32
2023-05-20T22:18:19.229Z,51.56
2023-05-20T22:22:22.882Z,51.55
2023-05-20T22:26:23.196Z,51.92
2023-05-20T22:30:23.569Z,51.85
2023-05-20T22:34:23.843Z,52.28
2023-05-20T22:38:29.402Z,52.49
2023-05-20T22:42:29.650Z,52.69
2023-05-20T22:46:30.246Z,52.34
2023-05-20T22:50:30.639Z,52.37
2023-05-20T22:54:33.672Z,53.03
2023-05-20T22:58:39.565Z,52.54
2023-05-20T23:02:42.216Z,52.69
2023-05-20T23:06:42.536Z,52.65
2023-05-20T23:10:45.386Z,52.50
2023-05-20T23:14:45.847Z,52.49
2023-05-20T23:18:46.989Z,52.83
2023-05-20T23:22:47.616Z,52.80
2023-05-20T23:26:50.897Z,52.59
2023-05-20T23:30:51.271Z,53.03
2023-05-20T23:34:51.569Z,53.56
2023-05-20T23:38:51.866Z,53.86
2023-05-20T23:42:54.792Z,54.33
2023-05-20T23:46:55.178Z,54.45
2023-05-20T23:50:55.508Z,53.96
2023-05-20T23:54:56.613Z,53.88
2023-05-20T23:59:00.345Z,53.71
